CXA7078 YMML-YSSY
Flight info
| Callsign | CXA7078 |
|---|---|
| Flight time | 1h 1m |
| Altitude | 37000 |
| Route | ML H129 DOSEL Y59 RIVET |
| Aircraft | B38M/M-SDE3GHIJ2J3JM1RVWXYZ/LB2D1 |
Departure
| Time | 2026-05-04 05:47 |
|---|---|
| Airport | Melbourne Airport (YMML) |
Arrival
| Time | 2026-05-04 06:48 |
|---|---|
| Airport | Sydney Kingsford Smith International Airport (YSSY) |
| Time | Latitude | Longitude | Altitude | Speed | Heading |
|---|---|---|---|---|---|
| 2026-05-04 05:10 | -37.66942 | 144.84419 | 368 ft | 0 kts | 332° |
| 2026-05-04 05:34 | -37.66954 | 144.84427 | 370 ft | 3 kts | 332° |
| 2026-05-04 05:35 | -37.66972 | 144.84439 | 367 ft | 3 kts | 332° |
| 2026-05-04 05:35 | -37.66990 | 144.84451 | 366 ft | 3 kts | 332° |
| 2026-05-04 05:35 | -37.67004 | 144.84462 | 366 ft | 3 kts | 315° |
| 2026-05-04 05:35 | -37.67013 | 144.84480 | 367 ft | 3 kts | 277° |
| 2026-05-04 05:36 | -37.67012 | 144.84503 | 366 ft | 2 kts | 254° |
| 2026-05-04 05:36 | -37.67011 | 144.84508 | 368 ft | 1 kts | 253° |
| 2026-05-04 05:40 | -37.67011 | 144.84507 | 364 ft | 1 kts | 253° |
| 2026-05-04 05:40 | -37.67026 | 144.84458 | 366 ft | 8 kts | 243° |
| 2026-05-04 05:40 | -37.67053 | 144.84349 | 375 ft | 11 kts | 261° |
| 2026-05-04 05:41 | -37.67080 | 144.84270 | 372 ft | 16 kts | 218° |
| 2026-05-04 05:41 | -37.67160 | 144.84263 | 373 ft | 19 kts | 173° |
| 2026-05-04 05:41 | -37.67300 | 144.84289 | 370 ft | 25 kts | 171° |
| 2026-05-04 05:41 | -37.67483 | 144.84323 | 363 ft | 23 kts | 171° |
| 2026-05-04 05:42 | -37.67634 | 144.84349 | 359 ft | 24 kts | 175° |
| 2026-05-04 05:42 | -37.67799 | 144.84378 | 357 ft | 23 kts | 168° |
| 2026-05-04 05:42 | -37.67972 | 144.84413 | 354 ft | 28 kts | 171° |
| 2026-05-04 05:42 | -37.68161 | 144.84445 | 349 ft | 29 kts | 174° |
| 2026-05-04 05:43 | -37.68315 | 144.84473 | 338 ft | 16 kts | 170° |
| 2026-05-04 05:43 | -37.68410 | 144.84423 | 335 ft | 16 kts | 226° |
| 2026-05-04 05:43 | -37.68478 | 144.84358 | 332 ft | 11 kts | 215° |
| 2026-05-04 05:45 | -37.68501 | 144.84086 | 335 ft | 12 kts | 351° |
| 2026-05-04 05:45 | -37.68327 | 144.84053 | 342 ft | 53 kts | 352° |
| 2026-05-04 05:47 | -37.61061 | 144.82658 | 4355 ft | 182 kts | 347° |
| 2026-05-04 05:47 | -37.59729 | 144.82424 | 4717 ft | 206 kts | 354° |
| 2026-05-04 05:47 | -37.58264 | 144.82867 | 4704 ft | 231 kts | 19° |
| 2026-05-04 05:48 | -37.56770 | 144.83767 | 5307 ft | 245 kts | 18° |
| 2026-05-04 05:48 | -37.55183 | 144.84708 | 6035 ft | 255 kts | 18° |
| 2026-05-04 05:48 | -37.53574 | 144.85672 | 6929 ft | 259 kts | 18° |
| 2026-05-04 05:48 | -37.51933 | 144.86662 | 7724 ft | 263 kts | 19° |
| 2026-05-04 05:49 | -37.50266 | 144.87670 | 8516 ft | 268 kts | 18° |
| 2026-05-04 05:49 | -37.48573 | 144.88695 | 9323 ft | 271 kts | 19° |
| 2026-05-04 05:49 | -37.46855 | 144.89735 | 10059 ft | 276 kts | 19° |
| 2026-05-04 05:49 | -37.45081 | 144.90809 | 10510 ft | 293 kts | 19° |
| 2026-05-04 05:51 | -37.34816 | 145.07343 | 14914 ft | 365 kts | 50° |
| 2026-05-04 05:51 | -37.33338 | 145.09953 | 15664 ft | 369 kts | 50° |
| 2026-05-04 05:52 | -37.31847 | 145.12584 | 16405 ft | 372 kts | 50° |
| 2026-05-04 05:52 | -37.30338 | 145.15245 | 17122 ft | 375 kts | 49° |
| 2026-05-04 05:52 | -37.28814 | 145.17930 | 17841 ft | 379 kts | 49° |
| 2026-05-04 05:52 | -37.27277 | 145.20636 | 18475 ft | 383 kts | 49° |
| 2026-05-04 05:53 | -37.25722 | 145.23371 | 19095 ft | 385 kts | 49° |
| 2026-05-04 05:54 | -37.14576 | 145.42908 | 23214 ft | 402 kts | 46° |
| 2026-05-04 05:55 | -37.12937 | 145.45769 | 23694 ft | 406 kts | 46° |
| 2026-05-04 05:55 | -37.11358 | 145.48522 | 24132 ft | 408 kts | 46° |
| 2026-05-04 05:55 | -37.09697 | 145.51416 | 24591 ft | 410 kts | 46° |
| 2026-05-04 05:55 | -37.08592 | 145.53342 | 24887 ft | 412 kts | 45° |
| 2026-05-04 05:56 | -37.06341 | 145.57256 | 25511 ft | 415 kts | 45° |
| 2026-05-04 05:56 | -37.04650 | 145.60195 | 25913 ft | 418 kts | 45° |
| 2026-05-04 05:56 | -37.03522 | 145.62153 | 26189 ft | 420 kts | 45° |
| 2026-05-04 05:56 | -37.01807 | 145.65129 | 26584 ft | 422 kts | 45° |
| 2026-05-04 05:57 | -37.00082 | 145.68122 | 26928 ft | 427 kts | 45° |
| 2026-05-04 05:57 | -36.98334 | 145.71148 | 27324 ft | 430 kts | 45° |
| 2026-05-04 05:57 | -36.96577 | 145.74189 | 27728 ft | 432 kts | 45° |
| 2026-05-04 05:57 | -36.94810 | 145.77244 | 28099 ft | 436 kts | 45° |
| 2026-05-04 05:58 | -36.93027 | 145.80324 | 28471 ft | 438 kts | 45° |
| 2026-05-04 05:58 | -36.91240 | 145.83410 | 28926 ft | 439 kts | 45° |
| 2026-05-04 05:58 | -36.89442 | 145.86509 | 29268 ft | 442 kts | 45° |
| 2026-05-04 05:58 | -36.87631 | 145.89630 | 29593 ft | 446 kts | 45° |
| 2026-05-04 05:59 | -36.85804 | 145.92774 | 29900 ft | 449 kts | 45° |
| 2026-05-04 05:59 | -36.83962 | 145.95942 | 30222 ft | 452 kts | 45° |
| 2026-05-04 05:59 | -36.82110 | 145.99126 | 30495 ft | 454 kts | 45° |
| 2026-05-04 05:59 | -36.80258 | 146.02328 | 30779 ft | 456 kts | 45° |
| 2026-05-04 06:00 | -36.78381 | 146.05526 | 31029 ft | 458 kts | 45° |
| 2026-05-04 06:00 | -36.76501 | 146.08744 | 31358 ft | 459 kts | 45° |
| 2026-05-04 06:00 | -36.74612 | 146.11974 | 31603 ft | 463 kts | 45° |
| 2026-05-04 06:00 | -36.72710 | 146.15225 | 31830 ft | 466 kts | 45° |
| 2026-05-04 06:01 | -36.70796 | 146.18494 | 32127 ft | 468 kts | 45° |
| 2026-05-04 06:01 | -36.68873 | 146.21775 | 32383 ft | 470 kts | 45° |
| 2026-05-04 06:03 | -36.55337 | 146.44784 | 34554 ft | 471 kts | 45° |
| 2026-05-04 06:03 | -36.53397 | 146.48071 | 34794 ft | 472 kts | 45° |
| 2026-05-04 06:05 | -36.39696 | 146.71180 | 36378 ft | 477 kts | 45° |
| 2026-05-04 06:05 | -36.35770 | 146.77774 | 36791 ft | 479 kts | 45° |
| 2026-05-04 06:05 | -36.33789 | 146.81096 | 36965 ft | 480 kts | 45° |
| 2026-05-04 06:06 | -36.31798 | 146.84431 | 36995 ft | 481 kts | 44° |
| 2026-05-04 06:06 | -36.27839 | 146.91053 | 37004 ft | 476 kts | 44° |
| 2026-05-04 06:07 | -36.23891 | 146.97648 | 36996 ft | 476 kts | 44° |
| 2026-05-04 06:07 | -36.19937 | 147.04242 | 36982 ft | 477 kts | 44° |
| 2026-05-04 06:08 | -36.15971 | 147.10831 | 36990 ft | 477 kts | 44° |
| 2026-05-04 06:08 | -36.12012 | 147.17401 | 37011 ft | 476 kts | 44° |
| 2026-05-04 06:09 | -36.08055 | 147.23957 | 36992 ft | 475 kts | 44° |
| 2026-05-04 06:11 | -35.92179 | 147.50133 | 37018 ft | 476 kts | 44° |
| 2026-05-04 06:13 | -35.76235 | 147.76221 | 37031 ft | 478 kts | 43° |
| 2026-05-04 06:14 | -35.62206 | 147.99016 | 37036 ft | 480 kts | 43° |
| 2026-05-04 06:15 | -35.58136 | 148.05599 | 37023 ft | 480 kts | 43° |
| 2026-05-04 06:15 | -35.54096 | 148.12125 | 37018 ft | 480 kts | 43° |
| 2026-05-04 06:16 | -35.50074 | 148.18605 | 36988 ft | 480 kts | 43° |
| 2026-05-04 06:16 | -35.46009 | 148.25146 | 37021 ft | 482 kts | 43° |
| 2026-05-04 06:17 | -35.41948 | 148.31668 | 37040 ft | 481 kts | 43° |
| 2026-05-04 06:17 | -35.37883 | 148.38182 | 37023 ft | 481 kts | 43° |
| 2026-05-04 06:18 | -35.33810 | 148.44695 | 37016 ft | 483 kts | 43° |
| 2026-05-04 06:20 | -35.17460 | 148.70727 | 37014 ft | 483 kts | 43° |
| 2026-05-04 06:21 | -35.07238 | 148.86913 | 36436 ft | 477 kts | 43° |
| 2026-05-04 06:21 | -35.05206 | 148.90118 | 35689 ft | 477 kts | 43° |
| 2026-05-04 06:22 | -35.03172 | 148.93321 | 35004 ft | 478 kts | 43° |
| 2026-05-04 06:22 | -35.01138 | 148.96525 | 34372 ft | 477 kts | 43° |
| 2026-05-04 06:25 | -34.74893 | 149.37616 | 24978 ft | 480 kts | 44° |
| 2026-05-04 06:25 | -34.73080 | 149.41078 | 25015 ft | 495 kts | 56° |
| 2026-05-04 06:26 | -34.71500 | 149.44775 | 24739 ft | 486 kts | 54° |
| 2026-05-04 06:26 | -34.69912 | 149.48404 | 23847 ft | 487 kts | 54° |
| 2026-05-04 06:26 | -34.68329 | 149.52024 | 23039 ft | 483 kts | 54° |
| 2026-05-04 06:26 | -34.66761 | 149.55615 | 22252 ft | 478 kts | 55° |
| 2026-05-04 06:27 | -34.60656 | 149.69562 | 19423 ft | 458 kts | 56° |
| 2026-05-04 06:28 | -34.59166 | 149.72956 | 18766 ft | 453 kts | 56° |
| 2026-05-04 06:28 | -34.57692 | 149.76311 | 18128 ft | 448 kts | 57° |
| 2026-05-04 06:28 | -34.56233 | 149.79628 | 17429 ft | 443 kts | 57° |
| 2026-05-04 06:28 | -34.54788 | 149.82910 | 16761 ft | 439 kts | 57° |
| 2026-05-04 06:29 | -34.53357 | 149.86158 | 16108 ft | 434 kts | 57° |
| 2026-05-04 06:29 | -34.51950 | 149.89351 | 15444 ft | 422 kts | 57° |
| 2026-05-04 06:29 | -34.50580 | 149.92455 | 14462 ft | 414 kts | 57° |
| 2026-05-04 06:29 | -34.49232 | 149.95502 | 13532 ft | 406 kts | 57° |
| 2026-05-04 06:30 | -34.47928 | 149.98452 | 13309 ft | 392 kts | 56° |
| 2026-05-04 06:30 | -34.46641 | 150.01360 | 13136 ft | 390 kts | 56° |
| 2026-05-04 06:30 | -34.45382 | 150.04202 | 12693 ft | 375 kts | 56° |
| 2026-05-04 06:30 | -34.44207 | 150.06865 | 12875 ft | 342 kts | 55° |
| 2026-05-04 06:31 | -34.43068 | 150.09420 | 13053 ft | 349 kts | 56° |
| 2026-05-04 06:31 | -34.41912 | 150.12020 | 13006 ft | 351 kts | 56° |
| 2026-05-04 06:31 | -34.40755 | 150.14619 | 12999 ft | 351 kts | 56° |
| 2026-05-04 06:31 | -34.39600 | 150.17225 | 12979 ft | 351 kts | 56° |
| 2026-05-04 06:32 | -34.38470 | 150.19770 | 12959 ft | 333 kts | 55° |
| 2026-05-04 06:33 | -34.30581 | 150.37454 | 9981 ft | 344 kts | 56° |
| 2026-05-04 06:34 | -34.29462 | 150.39955 | 9996 ft | 336 kts | 55° |
| 2026-05-04 06:34 | -34.28346 | 150.42420 | 9879 ft | 334 kts | 56° |
| 2026-05-04 06:34 | -34.27244 | 150.44890 | 9846 ft | 334 kts | 56° |
| 2026-05-04 06:34 | -34.26141 | 150.47365 | 9881 ft | 335 kts | 55° |
| 2026-05-04 06:35 | -34.25036 | 150.49821 | 9869 ft | 338 kts | 56° |
| 2026-05-04 06:36 | -34.17225 | 150.67250 | 6723 ft | 344 kts | 57° |
| 2026-05-04 06:37 | -34.16112 | 150.69735 | 6435 ft | 325 kts | 56° |
| 2026-05-04 06:37 | -34.15034 | 150.72126 | 6369 ft | 321 kts | 56° |
| 2026-05-04 06:37 | -34.14683 | 150.72904 | 6318 ft | 320 kts | 56° |
| 2026-05-04 06:37 | -34.13204 | 150.76185 | 6101 ft | 319 kts | 56° |
| 2026-05-04 06:38 | -34.12144 | 150.78533 | 5945 ft | 319 kts | 56° |
| 2026-05-04 06:38 | -34.11085 | 150.80881 | 5878 ft | 318 kts | 57° |
| 2026-05-04 06:40 | -34.03738 | 150.97352 | 5883 ft | 323 kts | 66° |
| 2026-05-04 06:40 | -34.03448 | 151.00009 | 5881 ft | 330 kts | 92° |
| 2026-05-04 06:40 | -34.04135 | 151.02657 | 5899 ft | 336 kts | 119° |
| 2026-05-04 06:40 | -34.05610 | 151.04847 | 5927 ft | 339 kts | 135° |
| 2026-05-04 06:41 | -34.07305 | 151.06840 | 5869 ft | 340 kts | 143° |
| 2026-05-04 06:41 | -34.09348 | 151.08048 | 6090 ft | 318 kts | 168° |
| 2026-05-04 06:41 | -34.11485 | 151.08618 | 5660 ft | 318 kts | 171° |
| 2026-05-04 06:41 | -34.13720 | 151.09203 | 4676 ft | 339 kts | 170° |
| 2026-05-04 06:42 | -34.16078 | 151.09818 | 3693 ft | 355 kts | 170° |
| 2026-05-04 06:42 | -34.18508 | 151.10450 | 3228 ft | 354 kts | 169° |
| 2026-05-04 06:42 | -34.20831 | 151.11238 | 3125 ft | 341 kts | 155° |
| 2026-05-04 06:44 | -34.19859 | 151.24485 | 2991 ft | 255 kts | 26° |
| 2026-05-04 06:44 | -34.18228 | 151.25142 | 2977 ft | 244 kts | 0° |
| 2026-05-04 06:44 | -34.16587 | 151.24825 | 3023 ft | 240 kts | 335° |
| 2026-05-04 06:45 | -34.15163 | 151.23791 | 3014 ft | 238 kts | 327° |
| 2026-05-04 06:45 | -34.13702 | 151.22834 | 2989 ft | 241 kts | 335° |
| 2026-05-04 06:45 | -34.12123 | 151.22171 | 2994 ft | 240 kts | 343° |
| 2026-05-04 06:45 | -34.10494 | 151.21723 | 2746 ft | 240 kts | 346° |
| 2026-05-04 06:46 | -34.08870 | 151.21310 | 2459 ft | 238 kts | 347° |
| 2026-05-04 06:46 | -34.07251 | 151.20887 | 2146 ft | 238 kts | 348° |
| 2026-05-04 06:46 | -34.05638 | 151.20466 | 1849 ft | 237 kts | 349° |
| 2026-05-04 06:46 | -34.04034 | 151.20046 | 1555 ft | 235 kts | 349° |
| 2026-05-04 06:48 | -33.94686 | 151.17614 | 26 ft | 62 kts | 348° |
| 2026-05-04 06:48 | -33.94360 | 151.17532 | 27 ft | 43 kts | 347° |
| 2026-05-04 06:49 | -33.94122 | 151.17476 | 24 ft | 29 kts | 347° |
| 2026-05-04 06:50 | -33.93897 | 151.17543 | 21 ft | 0 kts | 75° |
| 2026-05-04 06:53 | -33.93897 | 151.17544 | 21 ft | 1 kts | 75° |
| 2026-05-04 06:53 | -33.93890 | 151.17567 | 23 ft | 5 kts | 63° |
| 2026-05-04 06:53 | -33.93842 | 151.17593 | 21 ft | 11 kts | 1° |
| 2026-05-04 06:53 | -33.93759 | 151.17573 | 20 ft | 13 kts | 348° |
| 2026-05-04 06:54 | -33.93660 | 151.17549 | 19 ft | 10 kts | 347° |
| 2026-05-04 06:54 | -33.93595 | 151.17531 | 19 ft | 3 kts | 347° |
| 2026-05-04 06:54 | -33.93589 | 151.17529 | 19 ft | 3 kts | 347° |
| 2026-05-04 06:54 | -33.93538 | 151.17517 | 20 ft | 12 kts | 347° |
| 2026-05-04 06:55 | -33.93437 | 151.17503 | 26 ft | 17 kts | 2° |
| 2026-05-04 06:55 | -33.93315 | 151.17488 | 24 ft | 0 kts | 351° |
| 2026-05-04 06:55 | -33.93308 | 151.17491 | 25 ft | 2 kts | 13° |
| 2026-05-04 06:55 | -33.93257 | 151.17478 | 26 ft | 14 kts | 348° |
| 2026-05-04 06:56 | -33.93145 | 151.17446 | 27 ft | 2 kts | 346° |
| 2026-05-04 06:57 | -33.93199 | 151.17614 | 33 ft | 0 kts | 82° |
| 2026-05-04 06:58 | -33.93198 | 151.17624 | 33 ft | 0 kts | 83° |
| 2026-05-04 06:58 | -33.93197 | 151.17630 | 33 ft | 0 kts | 83° |
| 2026-05-04 07:01 | -33.93197 | 151.17631 | 33 ft | 0 kts | 83° |